createdAt,value
2016-12-31T00:00:11.363Z,926.78
2016-12-31T00:00:26.175Z,926.8
2016-12-31T00:00:40.957Z,926.8
2016-12-31T00:00:55.706Z,926.81
2016-12-31T00:01:10.492Z,926.82
2016-12-31T00:01:25.302Z,926.83
2016-12-31T00:01:40.102Z,926.89
2016-12-31T00:01:54.918Z,926.85
2016-12-31T00:02:09.719Z,926.88
2016-12-31T00:02:24.470Z,926.87
2016-12-31T00:02:39.230Z,926.86
2016-12-31T00:02:54.033Z,926.9
2016-12-31T00:03:08.820Z,926.91
2016-12-31T00:03:23.543Z,926.92
2016-12-31T00:03:38.260Z,926.97
2016-12-31T00:03:53.347Z,926.93
2016-12-31T00:04:08.076Z,926.95
2016-12-31T00:04:22.900Z,926.96
2016-12-31T00:04:37.675Z,926.94
2016-12-31T00:04:52.427Z,926.94
2016-12-31T00:05:07.179Z,926.95
2016-12-31T00:05:22.038Z,926.96
2016-12-31T00:05:36.863Z,926.97
2016-12-31T00:05:51.642Z,926.94
2016-12-31T00:06:06.414Z,926.93
2016-12-31T00:06:21.270Z,926.97
2016-12-31T00:06:36.082Z,926.95
2016-12-31T00:06:50.938Z,926.95
2016-12-31T00:07:05.752Z,926.96
2016-12-31T00:07:20.534Z,926.99
2016-12-31T00:07:35.382Z,926.97
2016-12-31T00:07:50.139Z,926.95
2016-12-31T00:08:05.024Z,926.94
2016-12-31T00:08:19.777Z,926.97
2016-12-31T00:08:34.547Z,926.93
2016-12-31T00:08:49.293Z,926.95
2016-12-31T00:09:04.167Z,926.93
2016-12-31T00:09:18.924Z,926.97
2016-12-31T00:09:33.732Z,926.92
2016-12-31T00:09:48.542Z,926.91
2016-12-31T00:10:03.358Z,926.93
2016-12-31T00:10:18.112Z,926.93
2016-12-31T00:10:32.873Z,926.92
2016-12-31T00:10:47.656Z,926.94
2016-12-31T00:11:02.389Z,926.92
2016-12-31T00:11:17.200Z,926.91
2016-12-31T00:11:32.049Z,926.93
2016-12-31T00:11:46.911Z,926.94
2016-12-31T00:12:01.685Z,926.93
2016-12-31T00:12:16.478Z,926.91
2016-12-31T00:12:31.230Z,926.92
2016-12-31T00:12:45.963Z,926.96
2016-12-31T00:13:00.680Z,926.93
2016-12-31T00:13:15.435Z,926.92
2016-12-31T00:13:30.190Z,926.93
2016-12-31T00:13:44.993Z,926.9
2016-12-31T00:13:59.843Z,926.91
2016-12-31T00:14:14.617Z,926.94
2016-12-31T00:14:29.349Z,926.91
2016-12-31T00:14:44.186Z,926.89
2016-12-31T00:14:59.057Z,926.93
2016-12-31T00:15:13.972Z,926.88
2016-12-31T00:15:28.818Z,926.9
2016-12-31T00:15:43.610Z,926.9
2016-12-31T00:15:58.415Z,926.89
2016-12-31T00:16:13.140Z,926.91
2016-12-31T00:16:27.831Z,926.9
2016-12-31T00:16:42.589Z,926.91
2016-12-31T00:16:57.398Z,926.92
2016-12-31T00:17:12.095Z,926.91
2016-12-31T00:17:26.837Z,926.87
2016-12-31T00:17:41.637Z,926.87
2016-12-31T00:17:56.425Z,926.88
2016-12-31T00:18:11.250Z,926.89
2016-12-31T00:18:26.004Z,926.85
2016-12-31T00:18:40.822Z,926.88
2016-12-31T00:18:55.875Z,926.87
2016-12-31T00:19:10.697Z,926.89
2016-12-31T00:19:25.539Z,926.85
2016-12-31T00:19:40.305Z,926.87
2016-12-31T00:19:55.108Z,926.86
2016-12-31T00:20:09.967Z,926.85
2016-12-31T00:20:24.820Z,926.89
2016-12-31T00:20:39.622Z,926.88
2016-12-31T00:20:54.437Z,926.85
2016-12-31T00:21:09.234Z,926.82
2016-12-31T00:21:24.130Z,926.87
2016-12-31T00:21:38.939Z,926.83
2016-12-31T00:21:53.781Z,926.87
2016-12-31T00:22:08.601Z,926.87
2016-12-31T00:22:23.435Z,926.85
2016-12-31T00:22:38.211Z,926.88
2016-12-31T00:22:52.968Z,926.87
2016-12-31T00:23:07.775Z,926.86
2016-12-31T00:23:22.497Z,926.9
2016-12-31T00:23:37.310Z,926.92
2016-12-31T00:23:52.088Z,926.89
2016-12-31T00:24:06.891Z,926.92
2016-12-31T00:24:21.710Z,926.88
2016-12-31T00:24:36.619Z,926.9
2016-12-31T00:24:51.588Z,926.9
2016-12-31T00:25:06.417Z,926.9
2016-12-31T00:25:21.279Z,926.92
2016-12-31T00:25:36.099Z,926.91
2016-12-31T00:25:50.867Z,926.91
2016-12-31T00:26:05.709Z,926.96
2016-12-31T00:26:20.447Z,926.92
2016-12-31T00:26:35.258Z,926.91
2016-12-31T00:26:50.146Z,926.9
2016-12-31T00:27:04.941Z,926.9
2016-12-31T00:27:19.715Z,926.92
2016-12-31T00:27:34.503Z,926.91
2016-12-31T00:27:49.225Z,926.94
2016-12-31T00:28:04.007Z,926.91
2016-12-31T00:28:18.871Z,926.92
2016-12-31T00:28:33.660Z,926.91
2016-12-31T00:28:48.501Z,926.93
2016-12-31T00:29:03.253Z,926.94
2016-12-31T00:29:18.114Z,926.95
2016-12-31T00:29:32.903Z,926.92
2016-12-31T00:29:47.672Z,926.94
2016-12-31T00:30:02.365Z,926.94
2016-12-31T00:30:17.195Z,926.94
2016-12-31T00:30:32.018Z,926.94
2016-12-31T00:30:46.836Z,926.92
2016-12-31T00:31:01.678Z,926.97
2016-12-31T00:31:16.446Z,926.93
2016-12-31T00:31:31.238Z,926.97
2016-12-31T00:31:46.060Z,926.97
2016-12-31T00:32:00.939Z,926.96
2016-12-31T00:32:15.703Z,926.92
2016-12-31T00:32:30.465Z,926.93
2016-12-31T00:32:45.245Z,926.94
2016-12-31T00:33:00.052Z,926.95
2016-12-31T00:33:14.942Z,926.92
2016-12-31T00:33:29.809Z,926.91
2016-12-31T00:33:44.594Z,926.9
2016-12-31T00:33:59.645Z,926.94
2016-12-31T00:34:14.446Z,926.92
2016-12-31T00:34:29.330Z,926.9
2016-12-31T00:34:44.075Z,926.89
2016-12-31T00:34:58.794Z,926.91
2016-12-31T00:35:13.491Z,926.89
2016-12-31T00:35:28.315Z,926.88
2016-12-31T00:35:43.162Z,926.87
2016-12-31T00:35:57.936Z,926.9
2016-12-31T00:36:12.762Z,926.88
2016-12-31T00:36:27.618Z,926.91
2016-12-31T00:36:42.388Z,926.95
2016-12-31T00:36:57.164Z,926.94
2016-12-31T00:37:11.930Z,926.92
2016-12-31T00:37:26.740Z,926.91
2016-12-31T00:37:41.469Z,926.95
2016-12-31T00:37:56.287Z,926.92
2016-12-31T00:38:11.149Z,926.97
2016-12-31T00:38:25.879Z,926.93
2016-12-31T00:38:40.662Z,926.97
2016-12-31T00:38:55.481Z,926.98
2016-12-31T00:39:10.333Z,926.98
2016-12-31T00:39:25.149Z,926.99
2016-12-31T00:39:39.968Z,926.99
2016-12-31T00:39:54.760Z,927.01
2016-12-31T00:40:09.550Z,927.01
2016-12-31T00:40:24.360Z,927
2016-12-31T00:40:39.156Z,927.01
2016-12-31T00:40:53.953Z,927.02
2016-12-31T00:41:08.721Z,927
2016-12-31T00:41:23.571Z,926.99
2016-12-31T00:41:38.361Z,926.99
2016-12-31T00:41:53.125Z,927
2016-12-31T00:42:07.923Z,927.01
2016-12-31T00:42:22.680Z,926.98
2016-12-31T00:42:37.466Z,926.99
2016-12-31T00:42:52.214Z,926.98
2016-12-31T00:43:06.994Z,926.97
2016-12-31T00:43:21.860Z,926.99
2016-12-31T00:43:36.734Z,926.97
2016-12-31T00:43:51.545Z,926.99
2016-12-31T00:44:06.379Z,926.94
2016-12-31T00:44:21.196Z,926.96
2016-12-31T00:44:36.013Z,926.98
2016-12-31T00:44:50.763Z,926.92
2016-12-31T00:45:05.555Z,926.95
2016-12-31T00:45:20.323Z,926.96
2016-12-31T00:45:35.095Z,926.95
2016-12-31T00:45:49.919Z,926.99
2016-12-31T00:46:04.712Z,926.92
2016-12-31T00:46:19.460Z,926.94
2016-12-31T00:46:34.228Z,926.94
2016-12-31T00:46:49.069Z,926.95
2016-12-31T00:47:03.788Z,926.93
2016-12-31T00:47:18.579Z,926.97
2016-12-31T00:47:33.422Z,927.01
2016-12-31T00:47:48.184Z,926.98
2016-12-31T00:48:03.054Z,926.97
2016-12-31T00:48:17.850Z,927.01
2016-12-31T00:48:32.675Z,927
2016-12-31T00:48:47.474Z,927.02
2016-12-31T00:49:02.256Z,926.99
2016-12-31T00:49:17.364Z,927.04
2016-12-31T00:49:32.239Z,927.04
2016-12-31T00:49:47.039Z,927.05
2016-12-31T00:50:01.845Z,927.04
2016-12-31T00:50:16.644Z,927.04
2016-12-31T00:50:31.527Z,927.04
2016-12-31T00:50:46.295Z,927.03
2016-12-31T00:51:01.141Z,927.06
2016-12-31T00:51:16.027Z,927.07
2016-12-31T00:51:30.850Z,927.02
2016-12-31T00:51:45.634Z,927.02
2016-12-31T00:52:00.394Z,927.04
2016-12-31T00:52:15.137Z,927.03
2016-12-31T00:52:29.929Z,927.03
2016-12-31T00:52:44.719Z,927.03
2016-12-31T00:52:59.582Z,927.06
2016-12-31T00:53:14.377Z,927.03
2016-12-31T00:53:29.191Z,927.01
2016-12-31T00:53:43.983Z,927.05
2016-12-31T00:53:58.760Z,926.99
2016-12-31T00:54:13.549Z,927.01
2016-12-31T00:54:28.414Z,927.01
2016-12-31T00:54:43.209Z,927.04
2016-12-31T00:54:58.043Z,927.03
2016-12-31T00:55:12.832Z,927.05
2016-12-31T00:55:27.615Z,927.02
2016-12-31T00:55:42.394Z,927.05
2016-12-31T00:55:57.199Z,927.03
2016-12-31T00:56:12.029Z,927.05
2016-12-31T00:56:26.800Z,927.02
2016-12-31T00:56:41.563Z,927.01
2016-12-31T00:56:56.336Z,927.01
2016-12-31T00:57:11.096Z,927.04
2016-12-31T00:57:25.931Z,927.05
2016-12-31T00:57:40.673Z,927.06
2016-12-31T00:57:55.582Z,927.07
2016-12-31T00:58:10.381Z,927.07
2016-12-31T00:58:25.256Z,927.09
2016-12-31T00:58:40.027Z,927.06
2016-12-31T00:58:54.797Z,927.04
2016-12-31T00:59:09.603Z,927.11
2016-12-31T00:59:24.421Z,927.06
2016-12-31T00:59:39.172Z,927.07
2016-12-31T00:59:54.007Z,927.09
2016-12-31T01:00:08.870Z,927.1
2016-12-31T01:00:23.679Z,927.09
2016-12-31T01:00:38.440Z,927.12
2016-12-31T01:00:53.215Z,927.16
2016-12-31T01:01:08.065Z,927.17
2016-12-31T01:01:22.900Z,927.16
2016-12-31T01:01:37.761Z,927.15
2016-12-31T01:01:52.594Z,927.18
2016-12-31T01:02:07.357Z,927.18
2016-12-31T01:02:22.135Z,927.2
2016-12-31T01:02:36.946Z,927.19
2016-12-31T01:02:51.779Z,927.18
2016-12-31T01:03:06.486Z,927.18
2016-12-31T01:03:21.312Z,927.18
2016-12-31T01:03:36.101Z,927.19
2016-12-31T01:03:50.925Z,927.18
2016-12-31T01:04:05.691Z,927.2
2016-12-31T01:04:20.852Z,927.2
2016-12-31T01:04:35.666Z,927.18
2016-12-31T01:04:50.486Z,927.18
2016-12-31T01:05:05.212Z,927.2
2016-12-31T01:05:20.026Z,927.18
2016-12-31T01:05:34.775Z,927.16
2016-12-31T01:05:49.512Z,927.16
2016-12-31T01:06:04.365Z,927.18
2016-12-31T01:06:19.201Z,927.18
2016-12-31T01:06:33.957Z,927.21
2016-12-31T01:06:48.858Z,927.22
2016-12-31T01:07:03.704Z,927.2
2016-12-31T01:07:18.506Z,927.23
2016-12-31T01:07:33.329Z,927.2
2016-12-31T01:07:48.059Z,927.23
2016-12-31T01:08:02.895Z,927.28
2016-12-31T01:08:17.750Z,927.22
2016-12-31T01:08:32.510Z,927.23
2016-12-31T01:08:47.305Z,927.22
2016-12-31T01:09:02.090Z,927.22
2016-12-31T01:09:16.968Z,927.23
2016-12-31T01:09:31.753Z,927.23
2016-12-31T01:09:46.543Z,927.22
2016-12-31T01:10:01.310Z,927.25
2016-12-31T01:10:16.110Z,927.25
2016-12-31T01:10:30.944Z,927.27
2016-12-31T01:10:45.794Z,927.28
2016-12-31T01:11:00.597Z,927.29
2016-12-31T01:11:15.354Z,927.28
2016-12-31T01:11:30.230Z,927.28
2016-12-31T01:11:45.078Z,927.29
2016-12-31T01:11:59.899Z,927.28
2016-12-31T01:12:14.725Z,927.31
2016-12-31T01:12:29.545Z,927.29
2016-12-31T01:12:44.347Z,927.31
2016-12-31T01:12:59.142Z,927.33
2016-12-31T01:13:13.934Z,927.33
2016-12-31T01:13:28.720Z,927.37
2016-12-31T01:13:43.571Z,927.32
2016-12-31T01:13:58.480Z,927.32
2016-12-31T01:14:13.201Z,927.37
2016-12-31T01:14:27.990Z,927.39
2016-12-31T01:14:42.751Z,927.38
2016-12-31T01:14:57.573Z,927.39
2016-12-31T01:15:12.360Z,927.41
2016-12-31T01:15:27.210Z,927.42
2016-12-31T01:15:42.066Z,927.43
2016-12-31T01:15:56.870Z,927.48
2016-12-31T01:16:11.726Z,927.47
2016-12-31T01:16:26.519Z,927.47
2016-12-31T01:16:41.330Z,927.45
2016-12-31T01:16:56.136Z,927.49
2016-12-31T01:17:10.906Z,927.47
2016-12-31T01:17:25.696Z,927.44
2016-12-31T01:17:40.565Z,927.46
2016-12-31T01:17:55.366Z,927.47
2016-12-31T01:18:10.171Z,927.47
2016-12-31T01:18:24.945Z,927.47
2016-12-31T01:18:39.721Z,927.49
2016-12-31T01:18:54.505Z,927.5
2016-12-31T01:19:09.318Z,927.47
2016-12-31T01:19:24.403Z,927.44
2016-12-31T01:19:39.295Z,927.46
2016-12-31T01:19:54.022Z,927.5
2016-12-31T01:20:08.864Z,927.44
2016-12-31T01:20:23.585Z,927.44
2016-12-31T01:20:38.307Z,927.44
2016-12-31T01:20:53.029Z,927.45
2016-12-31T01:21:07.765Z,927.45
2016-12-31T01:21:22.536Z,927.47
2016-12-31T01:21:37.366Z,927.52
2016-12-31T01:21:52.175Z,927.47
2016-12-31T01:22:06.987Z,927.49
2016-12-31T01:22:21.771Z,927.47
2016-12-31T01:22:36.556Z,927.48
2016-12-31T01:22:51.419Z,927.51
2016-12-31T01:23:06.175Z,927.48
2016-12-31T01:23:20.964Z,927.5
2016-12-31T01:23:35.834Z,927.51
2016-12-31T01:23:50.609Z,927.47
2016-12-31T01:24:05.392Z,927.48
2016-12-31T01:24:20.239Z,927.47
2016-12-31T01:24:35.034Z,927.45
2016-12-31T01:24:49.854Z,927.44
2016-12-31T01:25:04.710Z,927.44
2016-12-31T01:25:19.497Z,927.46
2016-12-31T01:25:34.283Z,927.42
2016-12-31T01:25:49.079Z,927.44
2016-12-31T01:26:03.936Z,927.46
2016-12-31T01:26:18.790Z,927.49
2016-12-31T01:26:33.598Z,927.47
2016-12-31T01:26:48.394Z,927.43
2016-12-31T01:27:03.198Z,927.43
2016-12-31T01:27:18.004Z,927.42
2016-12-31T01:27:32.747Z,927.43
2016-12-31T01:27:47.551Z,927.41
2016-12-31T01:28:02.315Z,927.41
2016-12-31T01:28:17.120Z,927.37
2016-12-31T01:28:31.864Z,927.42
2016-12-31T01:28:46.650Z,927.35
2016-12-31T01:29:01.483Z,927.39
2016-12-31T01:29:16.296Z,927.37
2016-12-31T01:29:31.168Z,927.37
2016-12-31T01:29:46.075Z,927.34
2016-12-31T01:30:00.986Z,927.31
2016-12-31T01:30:15.840Z,927.34
2016-12-31T01:30:30.683Z,927.34
2016-12-31T01:30:45.500Z,927.32
2016-12-31T01:31:00.259Z,927.34
2016-12-31T01:31:15.025Z,927.26
2016-12-31T01:31:29.848Z,927.32
2016-12-31T01:31:44.692Z,927.28
2016-12-31T01:31:59.431Z,927.28
2016-12-31T01:32:14.252Z,927.26
2016-12-31T01:32:29.043Z,927.23
2016-12-31T01:32:43.848Z,927.25
2016-12-31T01:32:58.663Z,927.24
2016-12-31T01:33:13.469Z,927.26
2016-12-31T01:33:28.277Z,927.25
2016-12-31T01:33:43.097Z,927.26
2016-12-31T01:33:57.933Z,927.23
2016-12-31T01:34:12.715Z,927.25
2016-12-31T01:34:27.499Z,927.24
2016-12-31T01:34:42.514Z,927.26
2016-12-31T01:34:57.284Z,927.23
2016-12-31T01:35:12.070Z,927.24
2016-12-31T01:35:26.852Z,927.26
2016-12-31T01:35:41.596Z,927.26
2016-12-31T01:35:56.295Z,927.25
2016-12-31T01:36:11.106Z,927.27
2016-12-31T01:36:25.868Z,927.27
2016-12-31T01:36:40.748Z,927.29
2016-12-31T01:36:55.597Z,927.28
2016-12-31T01:37:10.396Z,927.34
2016-12-31T01:37:25.081Z,927.32
2016-12-31T01:37:39.982Z,927.29
2016-12-31T01:37:54.813Z,927.3
2016-12-31T01:38:09.597Z,927.31
2016-12-31T01:38:24.394Z,927.33
2016-12-31T01:38:39.216Z,927.31
2016-12-31T01:38:54.010Z,927.34
2016-12-31T01:39:08.813Z,927.32
2016-12-31T01:39:23.584Z,927.31
2016-12-31T01:39:38.427Z,927.33
2016-12-31T01:39:53.164Z,927.32
2016-12-31T01:40:07.989Z,927.32
2016-12-31T01:40:22.737Z,927.33
2016-12-31T01:40:37.561Z,927.35
2016-12-31T01:40:52.372Z,927.32
2016-12-31T01:41:07.185Z,927.33
2016-12-31T01:41:21.941Z,927.34
2016-12-31T01:41:36.765Z,927.33
2016-12-31T01:41:51.612Z,927.33
2016-12-31T01:42:06.422Z,927.31
2016-12-31T01:42:21.231Z,927.32
2016-12-31T01:42:36.071Z,927.35
2016-12-31T01:42:50.888Z,927.3
2016-12-31T01:43:05.673Z,927.32
2016-12-31T01:43:20.441Z,927.32
2016-12-31T01:43:35.188Z,927.31
2016-12-31T01:43:50.067Z,927.3
2016-12-31T01:44:04.857Z,927.29
2016-12-31T01:44:19.693Z,927.26
2016-12-31T01:44:34.508Z,927.29
2016-12-31T01:44:49.344Z,927.31
2016-12-31T01:45:04.133Z,927.31
2016-12-31T01:45:18.948Z,927.29
2016-12-31T01:45:33.695Z,927.3
2016-12-31T01:45:48.450Z,927.26
2016-12-31T01:46:03.228Z,927.25
2016-12-31T01:46:18.006Z,927.27
2016-12-31T01:46:32.797Z,927.25
2016-12-31T01:46:47.618Z,927.25
2016-12-31T01:47:02.403Z,927.26
2016-12-31T01:47:17.260Z,927.26
2016-12-31T01:47:32.091Z,927.26
2016-12-31T01:47:46.903Z,927.24
2016-12-31T01:48:01.685Z,927.23
2016-12-31T01:48:16.456Z,927.26
2016-12-31T01:48:31.272Z,927.24
2016-12-31T01:48:46.078Z,927.25
2016-12-31T01:49:00.888Z,927.24
2016-12-31T01:49:15.622Z,927.25
2016-12-31T01:49:30.455Z,927.22
2016-12-31T01:49:45.562Z,927.23
2016-12-31T01:50:00.323Z,927.25
2016-12-31T01:50:15.239Z,927.22
2016-12-31T01:50:29.991Z,927.22
2016-12-31T01:50:44.822Z,927.2
2016-12-31T01:50:59.603Z,927.23
2016-12-31T01:51:14.397Z,927.21
2016-12-31T01:51:29.147Z,927.22
2016-12-31T01:51:43.985Z,927.22
2016-12-31T01:51:58.684Z,927.24
2016-12-31T01:52:13.476Z,927.24
2016-12-31T01:52:28.222Z,927.24
2016-12-31T01:52:43.069Z,927.27
2016-12-31T01:52:57.879Z,927.26
2016-12-31T01:53:12.719Z,927.24
2016-12-31T01:53:27.503Z,927.23
2016-12-31T01:53:42.297Z,927.2
2016-12-31T01:53:57.066Z,927.24
2016-12-31T01:54:11.879Z,927.27
2016-12-31T01:54:26.648Z,927.27
2016-12-31T01:54:41.441Z,927.24
2016-12-31T01:54:56.249Z,927.28
2016-12-31T01:55:11.032Z,927.28
2016-12-31T01:55:25.850Z,927.26
2016-12-31T01:55:40.668Z,927.27
2016-12-31T01:55:55.389Z,927.27
2016-12-31T01:56:10.216Z,927.24
2016-12-31T01:56:25.010Z,927.29
2016-12-31T01:56:39.766Z,927.27
2016-12-31T01:56:54.595Z,927.29
2016-12-31T01:57:09.407Z,927.32
2016-12-31T01:57:24.130Z,927.28
2016-12-31T01:57:38.965Z,927.32
2016-12-31T01:57:53.813Z,927.35
2016-12-31T01:58:08.630Z,927.33
2016-12-31T01:58:23.432Z,927.36
2016-12-31T01:58:38.235Z,927.37
2016-12-31T01:58:53.042Z,927.36
2016-12-31T01:59:07.816Z,927.36
2016-12-31T01:59:22.649Z,927.36
2016-12-31T01:59:37.517Z,927.35
2016-12-31T01:59:52.333Z,927.4
2016-12-31T02:00:07.108Z,927.4
2016-12-31T02:00:21.939Z,927.38
2016-12-31T02:00:36.794Z,927.37
2016-12-31T02:00:51.613Z,927.38
2016-12-31T02:01:06.389Z,927.39
2016-12-31T02:01:21.185Z,927.37
2016-12-31T02:01:36.009Z,927.38
2016-12-31T02:01:50.775Z,927.39
2016-12-31T02:02:05.668Z,927.38
2016-12-31T02:02:20.520Z,927.37
2016-12-31T02:02:35.241Z,927.37
2016-12-31T02:02:50.022Z,927.41
2016-12-31T02:03:04.791Z,927.37
2016-12-31T02:03:19.529Z,927.41
2016-12-31T02:03:34.361Z,927.36
2016-12-31T02:03:49.176Z,927.38
2016-12-31T02:04:04.004Z,927.36
2016-12-31T02:04:18.804Z,927.37
2016-12-31T02:04:33.595Z,927.37
2016-12-31T02:04:48.863Z,927.36
2016-12-31T02:05:03.707Z,927.35
2016-12-31T02:05:18.564Z,927.39
2016-12-31T02:05:33.385Z,927.38
2016-12-31T02:05:48.110Z,927.37
2016-12-31T02:06:02.877Z,927.39
2016-12-31T02:06:17.652Z,927.36
2016-12-31T02:06:32.438Z,927.38
2016-12-31T02:06:47.237Z,927.39
2016-12-31T02:07:02.137Z,927.42
2016-12-31T02:07:16.973Z,927.39
2016-12-31T02:07:31.692Z,927.39
2016-12-31T02:07:46.438Z,927.38
2016-12-31T02:08:01.246Z,927.42
2016-12-31T02:08:15.948Z,927.39
2016-12-31T02:08:30.721Z,927.42
2016-12-31T02:08:45.557Z,927.39
2016-12-31T02:09:00.341Z,927.4
2016-12-31T02:09:15.067Z,927.37
2016-12-31T02:09:29.921Z,927.41
2016-12-31T02:09:44.710Z,927.39
2016-12-31T02:09:59.501Z,927.4
2016-12-31T02:10:14.368Z,927.38
2016-12-31T02:10:29.269Z,927.42
2016-12-31T02:10:44.133Z,927.42
2016-12-31T02:10:58.916Z,927.45
2016-12-31T02:11:13.974Z,927.44
2016-12-31T02:11:28.733Z,927.43
2016-12-31T02:11:43.515Z,927.43
2016-12-31T02:11:58.251Z,927.44
2016-12-31T02:12:13.103Z,927.42
2016-12-31T02:12:27.972Z,927.48
2016-12-31T02:12:42.818Z,927.44
2016-12-31T02:12:57.549Z,927.45
2016-12-31T02:13:12.414Z,927.45
2016-12-31T02:13:27.201Z,927.49
2016-12-31T02:13:42.009Z,927.47
2016-12-31T02:13:56.818Z,927.5
2016-12-31T02:14:11.629Z,927.49
2016-12-31T02:14:26.459Z,927.52
2016-12-31T02:14:41.220Z,927.49
2016-12-31T02:14:56.081Z,927.49
2016-12-31T02:15:10.947Z,927.51
2016-12-31T02:15:25.761Z,927.49
2016-12-31T02:15:40.605Z,927.51
2016-12-31T02:15:55.358Z,927.52
2016-12-31T02:16:10.175Z,927.52
2016-12-31T02:16:25.015Z,927.55
2016-12-31T02:16:39.846Z,927.52
2016-12-31T02:16:54.624Z,927.53
2016-12-31T02:17:09.414Z,927.53
2016-12-31T02:17:24.223Z,927.55
2016-12-31T02:17:38.992Z,927.52
2016-12-31T02:17:53.804Z,927.54
2016-12-31T02:18:08.562Z,927.5
2016-12-31T02:18:23.376Z,927.53
2016-12-31T02:18:38.224Z,927.57
2016-12-31T02:18:52.994Z,927.54
2016-12-31T02:19:07.900Z,927.54
2016-12-31T02:19:22.751Z,927.54
2016-12-31T02:19:37.529Z,927.53
2016-12-31T02:19:52.356Z,927.52
2016-12-31T02:20:07.452Z,927.58
2016-12-31T02:20:22.226Z,927.53
2016-12-31T02:20:37.082Z,927.54
2016-12-31T02:20:51.815Z,927.51
2016-12-31T02:21:06.646Z,927.48
2016-12-31T02:21:21.447Z,927.52
2016-12-31T02:21:36.225Z,927.52
2016-12-31T02:21:51.000Z,927.51
2016-12-31T02:22:05.798Z,927.53
2016-12-31T02:22:20.578Z,927.51
2016-12-31T02:22:35.294Z,927.55
2016-12-31T02:22:50.037Z,927.5
2016-12-31T02:23:04.828Z,927.53
2016-12-31T02:23:19.590Z,927.56
2016-12-31T02:23:34.388Z,927.55
2016-12-31T02:23:49.166Z,927.53
2016-12-31T02:24:04.007Z,927.5
2016-12-31T02:24:18.889Z,927.51
2016-12-31T02:24:33.682Z,927.58
2016-12-31T02:24:48.534Z,927.46
2016-12-31T02:25:03.373Z,927.52
2016-12-31T02:25:18.189Z,927.51
2016-12-31T02:25:32.945Z,927.49
2016-12-31T02:25:47.697Z,927.5
2016-12-31T02:26:02.463Z,927.47
2016-12-31T02:26:17.255Z,927.43
2016-12-31T02:26:32.047Z,927.47
2016-12-31T02:26:46.845Z,927.47
2016-12-31T02:27:01.682Z,927.46
2016-12-31T02:27:16.523Z,927.51
2016-12-31T02:27:31.313Z,927.51
2016-12-31T02:27:46.125Z,927.48
2016-12-31T02:28:00.870Z,927.51
2016-12-31T02:28:15.675Z,927.51
2016-12-31T02:28:30.479Z,927.49
2016-12-31T02:28:45.267Z,927.53
2016-12-31T02:29:00.020Z,927.46
2016-12-31T02:29:14.855Z,927.5
2016-12-31T02:29:29.617Z,927.49
2016-12-31T02:29:44.407Z,927.52
2016-12-31T02:29:59.255Z,927.45
2016-12-31T02:30:14.016Z,927.44
2016-12-31T02:30:28.886Z,927.45
2016-12-31T02:30:43.780Z,927.49
2016-12-31T02:30:58.574Z,927.49
2016-12-31T02:31:13.386Z,927.51
2016-12-31T02:31:28.187Z,927.44
2016-12-31T02:31:42.964Z,927.46
2016-12-31T02:31:57.730Z,927.44
2016-12-31T02:32:12.467Z,927.43
2016-12-31T02:32:27.280Z,927.47
2016-12-31T02:32:42.073Z,927.45
2016-12-31T02:32:56.846Z,927.44
2016-12-31T02:33:11.708Z,927.45
2016-12-31T02:33:26.473Z,927.45
2016-12-31T02:33:41.207Z,927.45
2016-12-31T02:33:56.076Z,927.42
2016-12-31T02:34:10.860Z,927.47
2016-12-31T02:34:25.676Z,927.43
2016-12-31T02:34:40.395Z,927.46
2016-12-31T02:34:55.152Z,927.49
2016-12-31T02:35:10.425Z,927.45
2016-12-31T02:35:25.192Z,927.45
2016-12-31T02:35:40.011Z,927.47
2016-12-31T02:35:54.829Z,927.47
2016-12-31T02:36:09.616Z,927.46
2016-12-31T02:36:24.508Z,927.46
2016-12-31T02:36:39.348Z,927.47
2016-12-31T02:36:54.119Z,927.46
2016-12-31T02:37:08.826Z,927.44
2016-12-31T02:37:23.556Z,927.47
2016-12-31T02:37:38.432Z,927.46
2016-12-31T02:37:53.195Z,927.46
2016-12-31T02:38:08.001Z,927.48
2016-12-31T02:38:22.783Z,927.42
2016-12-31T02:38:37.593Z,927.45
2016-12-31T02:38:52.394Z,927.42
2016-12-31T02:39:07.152Z,927.39
2016-12-31T02:39:21.864Z,927.4
2016-12-31T02:39:36.673Z,927.42
2016-12-31T02:39:51.453Z,927.41
2016-12-31T02:40:06.279Z,927.41
2016-12-31T02:40:21.067Z,927.42
2016-12-31T02:40:35.851Z,927.41
2016-12-31T02:40:50.664Z,927.45
2016-12-31T02:41:05.461Z,927.42
2016-12-31T02:41:20.271Z,927.38
2016-12-31T02:41:35.073Z,927.39
2016-12-31T02:41:49.901Z,927.39
2016-12-31T02:42:04.713Z,927.4
2016-12-31T02:42:19.498Z,927.4
2016-12-31T02:42:34.373Z,927.36
2016-12-31T02:42:49.192Z,927.39
2016-12-31T02:43:03.939Z,927.45
2016-12-31T02:43:18.723Z,927.42
2016-12-31T02:43:33.541Z,927.41
2016-12-31T02:43:48.316Z,927.4
2016-12-31T02:44:03.135Z,927.43
2016-12-31T02:44:17.856Z,927.42
2016-12-31T02:44:32.667Z,927.39
2016-12-31T02:44:47.492Z,927.38
2016-12-31T02:45:02.326Z,927.38
2016-12-31T02:45:17.106Z,927.39
2016-12-31T02:45:31.847Z,927.4
2016-12-31T02:45:46.624Z,927.37
2016-12-31T02:46:01.443Z,927.41
2016-12-31T02:46:16.254Z,927.39
2016-12-31T02:46:31.087Z,927.39
2016-12-31T02:46:45.940Z,927.39
2016-12-31T02:47:00.731Z,927.34
2016-12-31T02:47:15.533Z,927.39
2016-12-31T02:47:30.318Z,927.38
2016-12-31T02:47:45.095Z,927.34
2016-12-31T02:47:59.890Z,927.35
2016-12-31T02:48:14.663Z,927.35
2016-12-31T02:48:29.450Z,927.38
2016-12-31T02:48:44.294Z,927.34
2016-12-31T02:48:59.025Z,927.33
2016-12-31T02:49:13.720Z,927.33
2016-12-31T02:49:28.472Z,927.35
2016-12-31T02:49:43.237Z,927.37
2016-12-31T02:49:57.997Z,927.37
2016-12-31T02:50:12.768Z,927.37
2016-12-31T02:50:28.091Z,927.38
2016-12-31T02:50:42.871Z,927.38
2016-12-31T02:50:57.713Z,927.37
2016-12-31T02:51:12.490Z,927.35
2016-12-31T02:51:27.313Z,927.36
2016-12-31T02:51:42.082Z,927.38
2016-12-31T02:51:56.814Z,927.38
2016-12-31T02:52:11.656Z,927.38
2016-12-31T02:52:26.454Z,927.39
2016-12-31T02:52:41.266Z,927.39
2016-12-31T02:52:56.030Z,927.37
2016-12-31T02:53:10.863Z,927.41
2016-12-31T02:53:25.712Z,927.39
2016-12-31T02:53:40.493Z,927.39
2016-12-31T02:53:55.292Z,927.37
2016-12-31T02:54:10.067Z,927.39
2016-12-31T02:54:24.911Z,927.39
2016-12-31T02:54:39.754Z,927.38
2016-12-31T02:54:54.578Z,927.35
2016-12-31T02:55:09.412Z,927.37
2016-12-31T02:55:24.215Z,927.38
2016-12-31T02:55:38.961Z,927.42
2016-12-31T02:55:53.794Z,927.39
2016-12-31T02:56:08.593Z,927.38
2016-12-31T02:56:23.496Z,927.38
2016-12-31T02:56:38.270Z,927.39
2016-12-31T02:56:53.057Z,927.36
2016-12-31T02:57:07.927Z,927.35
2016-12-31T02:57:22.677Z,927.35
2016-12-31T02:57:37.490Z,927.32
2016-12-31T02:57:52.321Z,927.36
2016-12-31T02:58:07.127Z,927.34
2016-12-31T02:58:21.972Z,927.33
2016-12-31T02:58:36.766Z,927.34
2016-12-31T02:58:51.533Z,927.33
2016-12-31T02:59:06.336Z,927.29
2016-12-31T02:59:21.113Z,927.33
2016-12-31T02:59:35.851Z,927.33
2016-12-31T02:59:50.618Z,927.3
2016-12-31T03:00:05.437Z,927.29
2016-12-31T03:00:20.271Z,927.34
2016-12-31T03:00:35.045Z,927.27
2016-12-31T03:00:49.905Z,927.28
2016-12-31T03:01:04.694Z,927.28
2016-12-31T03:01:19.416Z,927.27
2016-12-31T03:01:34.217Z,927.25
2016-12-31T03:01:48.980Z,927.29
2016-12-31T03:02:03.756Z,927.33
2016-12-31T03:02:18.504Z,927.29
2016-12-31T03:02:33.265Z,927.29
2016-12-31T03:02:48.007Z,927.32
2016-12-31T03:03:02.791Z,927.32
2016-12-31T03:03:17.616Z,927.3
2016-12-31T03:03:32.441Z,927.33
2016-12-31T03:03:47.181Z,927.31
2016-12-31T03:04:02.008Z,927.33
2016-12-31T03:04:16.833Z,927.35
2016-12-31T03:04:31.664Z,927.33
2016-12-31T03:04:46.422Z,927.34
2016-12-31T03:05:01.261Z,927.34
2016-12-31T03:05:16.091Z,927.3